sensor_id;sensor_type;location;lat;lon;timestamp;temperature;humidity
26479;DHT22;14163;-26.142;27.992;2022-12-05T00:12:49;23.00;99.90
26479;DHT22;14163;-26.142;27.992;2022-12-05T00:15:18;21.00;99.90
26479;DHT22;14163;-26.142;27.992;2022-12-05T00:17:47;21.50;99.90
26479;DHT22;14163;-26.142;27.992;2022-12-05T00:20:17;22.10;99.90
26479;DHT22;14163;-26.142;27.992;2022-12-05T00:22:46;22.70;99.90
26479;DHT22;14163;-26.142;27.992;2022-12-05T00:25:16;23.20;99.90
26479;DHT22;14163;-26.142;27.992;2022-12-05T00:27:45;23.50;99.90
26479;DHT22;14163;-26.142;27.992;2022-12-05T00:30:16;23.60;99.90
26479;DHT22;14163;-26.142;27.992;2022-12-05T00:32:45;23.90;99.90
26479;DHT22;14163;-26.142;27.992;2022-12-05T00:35:14;24.00;99.90
26479;DHT22;14163;-26.142;27.992;2022-12-05T00:37:43;24.10;99.90
26479;DHT22;14163;-26.142;27.992;2022-12-05T00:40:12;24.20;99.90
26479;DHT22;14163;-26.142;27.992;2022-12-05T00:42:41;24.30;99.90
26479;DHT22;14163;-26.142;27.992;2022-12-05T00:45:11;24.40;99.90
26479;DHT22;14163;-26.142;27.992;2022-12-05T00:47:41;24.40;99.90
26479;DHT22;14163;-26.142;27.992;2022-12-05T00:50:11;24.40;99.90
26479;DHT22;14163;-26.142;27.992;2022-12-05T00:52:40;24.50;99.90
26479;DHT22;14163;-26.142;27.992;2022-12-05T00:55:09;24.50;99.90
26479;DHT22;14163;-26.142;27.992;2022-12-05T00:57:38;24.40;99.90
26479;DHT22;14163;-26.142;27.992;2022-12-05T01:00:08;24.30;99.90
26479;DHT22;14163;-26.142;27.992;2022-12-05T01:02:37;24.30;99.90
26479;DHT22;14163;-26.142;27.992;2022-12-05T01:05:09;24.30;99.90
26479;DHT22;14163;-26.142;27.992;2022-12-05T01:07:38;24.30;99.90
26479;DHT22;14163;-26.142;27.992;2022-12-05T01:10:08;24.10;99.90
26479;DHT22;14163;-26.142;27.992;2022-12-05T01:12:37;24.20;99.90
26479;DHT22;14163;-26.142;27.992;2022-12-05T01:15:07;24.10;99.90
26479;DHT22;14163;-26.142;27.992;2022-12-05T01:17:37;24.00;99.90
26479;DHT22;14163;-26.142;27.992;2022-12-05T01:20:09;23.90;99.90
26479;DHT22;14163;-26.142;27.992;2022-12-05T01:22:38;24.00;99.90
26479;DHT22;14163;-26.142;27.992;2022-12-05T01:25:08;23.90;99.90
26479;DHT22;14163;-26.142;27.992;2022-12-05T01:27:37;23.70;99.90
26479;DHT22;14163;-26.142;27.992;2022-12-05T01:30:07;23.80;99.90
26479;DHT22;14163;-26.142;27.992;2022-12-05T01:32:36;23.80;99.90
26479;DHT22;14163;-26.142;27.992;2022-12-05T01:35:08;23.70;99.90
26479;DHT22;14163;-26.142;27.992;2022-12-05T01:37:37;23.50;99.90
26479;DHT22;14163;-26.142;27.992;2022-12-05T01:40:07;23.50;99.90
26479;DHT22;14163;-26.142;27.992;2022-12-05T01:42:39;23.30;99.90
26479;DHT22;14163;-26.142;27.992;2022-12-05T01:45:14;23.10;99.90
26479;DHT22;14163;-26.142;27.992;2022-12-05T01:47:44;23.20;99.90
26479;DHT22;14163;-26.142;27.992;2022-12-05T01:50:15;23.00;99.90
26479;DHT22;14163;-26.142;27.992;2022-12-05T01:52:45;23.00;99.90
26479;DHT22;14163;-26.142;27.992;2022-12-05T01:55:16;23.00;99.90
26479;DHT22;14163;-26.142;27.992;2022-12-05T01:57:46;23.00;99.90
26479;DHT22;14163;-26.142;27.992;2022-12-05T02:00:18;22.80;99.90
26479;DHT22;14163;-26.142;27.992;2022-12-05T02:02:51;22.60;99.90
26479;DHT22;14163;-26.142;27.992;2022-12-05T02:05:25;22.50;99.90
26479;DHT22;14163;-26.142;27.992;2022-12-05T02:07:57;22.50;99.90
26479;DHT22;14163;-26.142;27.992;2022-12-05T02:10:27;22.50;99.90
26479;DHT22;14163;-26.142;27.992;2022-12-05T02:13:03;22.40;99.90
26479;DHT22;14163;-26.142;27.992;2022-12-05T02:15:41;22.50;99.90
26479;DHT22;14163;-26.142;27.992;2022-12-05T02:18:24;22.70;99.90
26479;DHT22;14163;-26.142;27.992;2022-12-05T02:21:08;22.80;99.90
26479;DHT22;14163;-26.142;27.992;2022-12-05T02:24:10;22.70;99.90
26479;DHT22;14163;-26.142;27.992;2022-12-05T02:27:05;22.80;99.90
26479;DHT22;14163;-26.142;27.992;2022-12-05T02:29:59;22.70;99.90
26479;DHT22;14163;-26.142;27.992;2022-12-05T02:32:35;22.80;99.90
26479;DHT22;14163;-26.142;27.992;2022-12-05T02:35:19;22.80;99.90
26479;DHT22;14163;-26.142;27.992;2022-12-05T02:37:56;22.80;99.90
26479;DHT22;14163;-26.142;27.992;2022-12-05T02:40:29;22.60;99.90
26479;DHT22;14163;-26.142;27.992;2022-12-05T02:43:13;22.50;99.90
26479;DHT22;14163;-26.142;27.992;2022-12-05T02:45:47;22.50;99.90
26479;DHT22;14163;-26.142;27.992;2022-12-05T02:48:18;22.30;99.90
26479;DHT22;14163;-26.142;27.992;2022-12-05T02:50:49;22.30;99.90
26479;DHT22;14163;-26.142;27.992;2022-12-05T02:53:21;22.30;99.90
26479;DHT22;14163;-26.142;27.992;2022-12-05T02:55:52;22.40;99.90
26479;DHT22;14163;-26.142;27.992;2022-12-05T02:58:23;22.40;99.90
26479;DHT22;14163;-26.142;27.992;2022-12-05T03:00:58;22.40;99.90
26479;DHT22;14163;-26.142;27.992;2022-12-05T03:03:27;22.30;99.90
26479;DHT22;14163;-26.142;27.992;2022-12-05T03:06:00;22.30;99.90
26479;DHT22;14163;-26.142;27.992;2022-12-05T03:08:33;22.40;99.90
26479;DHT22;14163;-26.142;27.992;2022-12-05T03:11:05;22.60;99.90
26479;DHT22;14163;-26.142;27.992;2022-12-05T03:13:38;22.60;99.90
26479;DHT22;14163;-26.142;27.992;2022-12-05T03:16:13;22.50;99.90
26479;DHT22;14163;-26.142;27.992;2022-12-05T03:18:46;22.50;99.90
26479;DHT22;14163;-26.142;27.992;2022-12-05T03:21:23;22.70;99.90
26479;DHT22;14163;-26.142;27.992;2022-12-05T03:23:57;22.80;99.90
26479;DHT22;14163;-26.142;27.992;2022-12-05T03:26:40;22.70;99.90
26479;DHT22;14163;-26.142;27.992;2022-12-05T03:29:30;22.90;99.90
26479;DHT22;14163;-26.142;27.992;2022-12-05T03:32:06;23.10;99.90
26479;DHT22;14163;-26.142;27.992;2022-12-05T03:34:44;23.00;99.90
26479;DHT22;14163;-26.142;27.992;2022-12-05T03:37:23;22.80;99.90
26479;DHT22;14163;-26.142;27.992;2022-12-05T03:40:07;22.60;99.90
26479;DHT22;14163;-26.142;27.992;2022-12-05T03:42:41;22.60;99.90
26479;DHT22;14163;-26.142;27.992;2022-12-05T03:45:19;22.50;99.90
26479;DHT22;14163;-26.142;27.992;2022-12-05T03:47:58;22.40;99.90
26479;DHT22;14163;-26.142;27.992;2022-12-05T03:50:29;22.40;99.90
26479;DHT22;14163;-26.142;27.992;2022-12-05T03:53:01;22.40;99.90
26479;DHT22;14163;-26.142;27.992;2022-12-05T03:55:33;22.60;99.90
26479;DHT22;14163;-26.142;27.992;2022-12-05T03:58:06;22.50;99.90
26479;DHT22;14163;-26.142;27.992;2022-12-05T04:00:40;22.30;99.90
26479;DHT22;14163;-26.142;27.992;2022-12-05T04:03:14;22.20;99.90
26479;DHT22;14163;-26.142;27.992;2022-12-05T04:05:47;22.20;99.90
26479;DHT22;14163;-26.142;27.992;2022-12-05T04:08:20;22.20;99.90
26479;DHT22;14163;-26.142;27.992;2022-12-05T04:10:53;22.20;99.90
26479;DHT22;14163;-26.142;27.992;2022-12-05T04:13:25;22.20;99.90
26479;DHT22;14163;-26.142;27.992;2022-12-05T04:16:01;22.00;99.90
26479;DHT22;14163;-26.142;27.992;2022-12-05T04:18:52;21.90;99.90
26479;DHT22;14163;-26.142;27.992;2022-12-05T04:21:26;21.80;99.90
26479;DHT22;14163;-26.142;27.992;2022-12-05T04:24:07;21.80;99.90
26479;DHT22;14163;-26.142;27.992;2022-12-05T04:27:00;21.90;99.90
26479;DHT22;14163;-26.142;27.992;2022-12-05T04:29:36;21.90;99.90
26479;DHT22;14163;-26.142;27.992;2022-12-05T04:32:08;22.00;99.90
26479;DHT22;14163;-26.142;27.992;2022-12-05T04:34:41;21.90;99.90
26479;DHT22;14163;-26.142;27.992;2022-12-05T04:37:16;22.10;99.90
26479;DHT22;14163;-26.142;27.992;2022-12-05T04:39:49;22.10;99.90
26479;DHT22;14163;-26.142;27.992;2022-12-05T04:42:23;22.20;99.90
26479;DHT22;14163;-26.142;27.992;2022-12-05T04:44:56;21.90;99.90
26479;DHT22;14163;-26.142;27.992;2022-12-05T04:47:30;21.80;99.90
26479;DHT22;14163;-26.142;27.992;2022-12-05T04:50:03;21.70;99.90
26479;DHT22;14163;-26.142;27.992;2022-12-05T04:52:35;22.00;99.90
26479;DHT22;14163;-26.142;27.992;2022-12-05T04:55:08;22.20;99.90
26479;DHT22;14163;-26.142;27.992;2022-12-05T04:57:43;22.30;99.90
26479;DHT22;14163;-26.142;27.992;2022-12-05T05:00:16;22.40;99.90
26479;DHT22;14163;-26.142;27.992;2022-12-05T05:02:49;22.30;99.90
26479;DHT22;14163;-26.142;27.992;2022-12-05T05:05:22;22.20;99.90
26479;DHT22;14163;-26.142;27.992;2022-12-05T05:07:53;22.10;99.90
26479;DHT22;14163;-26.142;27.992;2022-12-05T05:10:26;22.20;99.90
26479;DHT22;14163;-26.142;27.992;2022-12-05T05:12:57;22.10;99.90
26479;DHT22;14163;-26.142;27.992;2022-12-05T05:15:26;22.00;99.90
26479;DHT22;14163;-26.142;27.992;2022-12-05T05:17:55;22.10;99.90
26479;DHT22;14163;-26.142;27.992;2022-12-05T05:20:26;22.00;99.90
26479;DHT22;14163;-26.142;27.992;2022-12-05T05:22:56;21.90;99.90
26479;DHT22;14163;-26.142;27.992;2022-12-05T05:25:25;21.90;99.90
26479;DHT22;14163;-26.142;27.992;2022-12-05T05:27:55;22.00;99.90
26479;DHT22;14163;-26.142;27.992;2022-12-05T05:30:25;22.20;99.90
26479;DHT22;14163;-26.142;27.992;2022-12-05T05:32:54;22.10;99.90
26479;DHT22;14163;-26.142;27.992;2022-12-05T05:35:25;22.30;99.90
26479;DHT22;14163;-26.142;27.992;2022-12-05T05:37:54;22.00;99.90
26479;DHT22;14163;-26.142;27.992;2022-12-05T05:40:23;21.90;99.90
26479;DHT22;14163;-26.142;27.992;2022-12-05T05:42:52;22.10;99.90
26479;DHT22;14163;-26.142;27.992;2022-12-05T05:45:21;22.30;99.90
26479;DHT22;14163;-26.142;27.992;2022-12-05T05:47:50;22.40;99.90
26479;DHT22;14163;-26.142;27.992;2022-12-05T05:50:19;22.70;99.90
26479;DHT22;14163;-26.142;27.992;2022-12-05T05:52:50;22.90;99.90
26479;DHT22;14163;-26.142;27.992;2022-12-05T05:55:20;23.00;99.90
26479;DHT22;14163;-26.142;27.992;2022-12-05T05:57:49;23.00;99.90
26479;DHT22;14163;-26.142;27.992;2022-12-05T06:00:18;23.10;99.90
26479;DHT22;14163;-26.142;27.992;2022-12-05T06:02:47;23.20;99.90
26479;DHT22;14163;-26.142;27.992;2022-12-05T06:05:16;23.30;99.90
26479;DHT22;14163;-26.142;27.992;2022-12-05T06:07:46;23.20;99.90
26479;DHT22;14163;-26.142;27.992;2022-12-05T06:10:17;23.00;99.90
26479;DHT22;14163;-26.142;27.992;2022-12-05T06:12:46;23.00;99.90
26479;DHT22;14163;-26.142;27.992;2022-12-05T06:15:15;23.00;99.90
26479;DHT22;14163;-26.142;27.992;2022-12-05T06:17:44;23.20;99.90
26479;DHT22;14163;-26.142;27.992;2022-12-05T06:20:13;23.20;99.90
26479;DHT22;14163;-26.142;27.992;2022-12-05T06:22:43;22.90;99.90
26479;DHT22;14163;-26.142;27.992;2022-12-05T06:25:12;23.00;99.90
26479;DHT22;14163;-26.142;27.992;2022-12-05T06:27:42;23.30;99.90
26479;DHT22;14163;-26.142;27.992;2022-12-05T06:30:12;23.30;99.90
26479;DHT22;14163;-26.142;27.992;2022-12-05T06:32:41;23.30;99.90
26479;DHT22;14163;-26.142;27.992;2022-12-05T06:35:10;23.50;99.90
26479;DHT22;14163;-26.142;27.992;2022-12-05T06:37:42;23.40;99.90
26479;DHT22;14163;-26.142;27.992;2022-12-05T06:40:12;23.50;99.90
26479;DHT22;14163;-26.142;27.992;2022-12-05T06:42:44;23.80;99.90
26479;DHT22;14163;-26.142;27.992;2022-12-05T06:45:13;23.90;99.90
26479;DHT22;14163;-26.142;27.992;2022-12-05T06:47:42;23.60;99.90
26479;DHT22;14163;-26.142;27.992;2022-12-05T06:50:11;23.60;99.90
26479;DHT22;14163;-26.142;27.992;2022-12-05T06:52:40;23.60;99.90
26479;DHT22;14163;-26.142;27.992;2022-12-05T06:55:09;23.80;99.90
26479;DHT22;14163;-26.142;27.992;2022-12-05T06:57:39;24.00;99.90
26479;DHT22;14163;-26.142;27.992;2022-12-05T07:00:11;24.20;99.90
26479;DHT22;14163;-26.142;27.992;2022-12-05T07:02:56;24.30;99.90
26479;DHT22;14163;-26.142;27.992;2022-12-05T07:05:25;24.30;99.90
26479;DHT22;14163;-26.142;27.992;2022-12-05T07:07:54;24.20;99.90
26479;DHT22;14163;-26.142;27.992;2022-12-05T07:10:24;24.10;99.90
26479;DHT22;14163;-26.142;27.992;2022-12-05T07:12:53;23.90;99.90
26479;DHT22;14163;-26.142;27.992;2022-12-05T07:15:23;23.80;99.90
26479;DHT22;14163;-26.142;27.992;2022-12-05T07:17:53;23.90;99.90
26479;DHT22;14163;-26.142;27.992;2022-12-05T07:20:22;23.90;99.90
26479;DHT22;14163;-26.142;27.992;2022-12-05T07:22:51;23.80;99.90
26479;DHT22;14163;-26.142;27.992;2022-12-05T07:25:20;23.60;99.90
26479;DHT22;14163;-26.142;27.992;2022-12-05T07:27:50;23.20;99.90
26479;DHT22;14163;-26.142;27.992;2022-12-05T07:30:19;22.60;99.90
26479;DHT22;14163;-26.142;27.992;2022-12-05T07:32:50;22.20;99.90
26479;DHT22;14163;-26.142;27.992;2022-12-05T07:35:19;22.00;99.90
26479;DHT22;14163;-26.142;27.992;2022-12-05T07:37:48;21.90;99.90
26479;DHT22;14163;-26.142;27.992;2022-12-05T07:40:17;21.80;99.90
26479;DHT22;14163;-26.142;27.992;2022-12-05T07:42:47;21.40;99.90
26479;DHT22;14163;-26.142;27.992;2022-12-05T07:45:19;21.30;99.90
26479;DHT22;14163;-26.142;27.992;2022-12-05T07:47:50;21.30;99.90
26479;DHT22;14163;-26.142;27.992;2022-12-05T07:50:19;21.20;99.90
26479;DHT22;14163;-26.142;27.992;2022-12-05T07:52:48;21.20;99.90
26479;DHT22;14163;-26.142;27.992;2022-12-05T07:55:17;21.10;99.90
26479;DHT22;14163;-26.142;27.992;2022-12-05T07:57:46;21.20;99.90
26479;DHT22;14163;-26.142;27.992;2022-12-05T08:00:17;21.20;99.90
26479;DHT22;14163;-26.142;27.992;2022-12-05T08:02:46;21.30;99.90
26479;DHT22;14163;-26.142;27.992;2022-12-05T08:05:17;21.50;99.90
26479;DHT22;14163;-26.142;27.992;2022-12-05T08:07:46;21.80;99.90
26479;DHT22;14163;-26.142;27.992;2022-12-05T08:10:15;22.00;99.90
26479;DHT22;14163;-26.142;27.992;2022-12-05T08:12:44;22.10;99.90
26479;DHT22;14163;-26.142;27.992;2022-12-05T08:15:13;22.10;99.90
26479;DHT22;14163;-26.142;27.992;2022-12-05T08:17:42;22.30;99.90
26479;DHT22;14163;-26.142;27.992;2022-12-05T08:20:12;22.30;99.90
26479;DHT22;14163;-26.142;27.992;2022-12-05T08:22:43;22.50;99.90
26479;DHT22;14163;-26.142;27.992;2022-12-05T08:25:12;22.50;99.90
26479;DHT22;14163;-26.142;27.992;2022-12-05T08:27:41;22.40;99.90
26479;DHT22;14163;-26.142;27.992;2022-12-05T08:30:11;22.60;99.90
26479;DHT22;14163;-26.142;27.992;2022-12-05T08:32:40;22.60;99.90
26479;DHT22;14163;-26.142;27.992;2022-12-05T08:35:09;22.90;99.90
26479;DHT22;14163;-26.142;27.992;2022-12-05T08:37:38;23.30;99.90
26479;DHT22;14163;-26.142;27.992;2022-12-05T08:40:10;23.30;99.90
26479;DHT22;14163;-26.142;27.992;2022-12-05T08:42:39;23.20;99.90
26479;DHT22;14163;-26.142;27.992;2022-12-05T08:45:09;23.10;99.90
26479;DHT22;14163;-26.142;27.992;2022-12-05T08:47:38;23.20;99.90
26479;DHT22;14163;-26.142;27.992;2022-12-05T08:50:08;23.50;99.90
26479;DHT22;14163;-26.142;27.992;2022-12-05T08:52:37;23.50;99.90
26479;DHT22;14163;-26.142;27.992;2022-12-05T08:55:09;23.50;99.90
26479;DHT22;14163;-26.142;27.992;2022-12-05T08:57:38;23.60;99.90
26479;DHT22;14163;-26.142;27.992;2022-12-05T09:00:09;23.60;99.90
26479;DHT22;14163;-26.142;27.992;2022-12-05T09:02:38;23.40;99.90
26479;DHT22;14163;-26.142;27.992;2022-12-05T09:05:08;23.20;99.90
26479;DHT22;14163;-26.142;27.992;2022-12-05T09:07:37;22.90;99.90
26479;DHT22;14163;-26.142;27.992;2022-12-05T09:10:09;22.70;99.90
26479;DHT22;14163;-26.142;27.992;2022-12-05T09:12:39;22.70;99.90
26479;DHT22;14163;-26.142;27.992;2022-12-05T09:15:09;22.60;99.90
26479;DHT22;14163;-26.142;27.992;2022-12-05T09:17:39;22.60;99.90
26479;DHT22;14163;-26.142;27.992;2022-12-05T09:20:09;22.70;99.90
26479;DHT22;14163;-26.142;27.992;2022-12-05T09:22:40;22.80;99.90
26479;DHT22;14163;-26.142;27.992;2022-12-05T09:25:11;22.70;99.90
26479;DHT22;14163;-26.142;27.992;2022-12-05T09:27:40;22.70;99.90
26479;DHT22;14163;-26.142;27.992;2022-12-05T09:30:10;22.40;99.90
26479;DHT22;14163;-26.142;27.992;2022-12-05T09:32:39;22.70;99.90
26479;DHT22;14163;-26.142;27.992;2022-12-05T09:35:08;22.90;99.90
26479;DHT22;14163;-26.142;27.992;2022-12-05T09:37:37;23.10;99.90
26479;DHT22;14163;-26.142;27.992;2022-12-05T09:40:16;23.10;99.90
26479;DHT22;14163;-26.142;27.992;2022-12-05T09:42:55;22.90;99.90
26479;DHT22;14163;-26.142;27.992;2022-12-05T09:45:29;22.70;99.90
26479;DHT22;14163;-26.142;27.992;2022-12-05T09:48:06;22.80;99.90
26479;DHT22;14163;-26.142;27.992;2022-12-05T09:50:43;22.90;99.90
26479;DHT22;14163;-26.142;27.992;2022-12-05T09:53:21;22.80;99.90
26479;DHT22;14163;-26.142;27.992;2022-12-05T09:55:56;22.90;99.90
26479;DHT22;14163;-26.142;27.992;2022-12-05T09:58:37;23.30;99.90
26479;DHT22;14163;-26.142;27.992;2022-12-05T10:01:18;23.70;99.90
26479;DHT22;14163;-26.142;27.992;2022-12-05T10:04:12;23.90;99.90
26479;DHT22;14163;-26.142;27.992;2022-12-05T10:06:48;24.10;99.90
26479;DHT22;14163;-26.142;27.992;2022-12-05T10:09:36;24.00;99.90
26479;DHT22;14163;-26.142;27.992;2022-12-05T10:12:17;24.00;99.90
26479;DHT22;14163;-26.142;27.992;2022-12-05T10:14:56;23.80;99.90
26479;DHT22;14163;-26.142;27.992;2022-12-05T10:17:30;23.90;99.90
26479;DHT22;14163;-26.142;27.992;2022-12-05T10:20:03;23.90;99.90
26479;DHT22;14163;-26.142;27.992;2022-12-05T10:22:39;23.60;99.90
26479;DHT22;14163;-26.142;27.992;2022-12-05T10:25:10;23.60;99.90
26479;DHT22;14163;-26.142;27.992;2022-12-05T10:27:46;23.80;99.90
26479;DHT22;14163;-26.142;27.992;2022-12-05T10:30:17;24.00;99.90
26479;DHT22;14163;-26.142;27.992;2022-12-05T10:32:52;24.20;99.90
26479;DHT22;14163;-26.142;27.992;2022-12-05T10:35:22;23.90;99.90
26479;DHT22;14163;-26.142;27.992;2022-12-05T10:37:53;23.90;99.90
26479;DHT22;14163;-26.142;27.992;2022-12-05T10:40:24;23.90;99.90
26479;DHT22;14163;-26.142;27.992;2022-12-05T10:42:56;23.70;99.90
26479;DHT22;14163;-26.142;27.992;2022-12-05T10:45:25;23.70;99.90
26479;DHT22;14163;-26.142;27.992;2022-12-05T10:47:56;23.70;99.90
26479;DHT22;14163;-26.142;27.992;2022-12-05T10:50:28;23.40;99.90
26479;DHT22;14163;-26.142;27.992;2022-12-05T10:52:59;23.30;99.90
26479;DHT22;14163;-26.142;27.992;2022-12-05T10:55:33;23.30;99.90
26479;DHT22;14163;-26.142;27.992;2022-12-05T10:58:14;23.30;99.90
26479;DHT22;14163;-26.142;27.992;2022-12-05T11:00:44;23.20;99.90
26479;DHT22;14163;-26.142;27.992;2022-12-05T11:03:31;23.20;99.90
26479;DHT22;14163;-26.142;27.992;2022-12-05T11:06:13;23.70;99.90
26479;DHT22;14163;-26.142;27.992;2022-12-05T11:08:43;24.10;99.90
26479;DHT22;14163;-26.142;27.992;2022-12-05T11:11:21;24.20;99.90
26479;DHT22;14163;-26.142;27.992;2022-12-05T11:13:56;24.00;99.90
26479;DHT22;14163;-26.142;27.992;2022-12-05T11:16:27;24.10;99.90
26479;DHT22;14163;-26.142;27.992;2022-12-05T11:18:57;24.00;99.90
26479;DHT22;14163;-26.142;27.992;2022-12-05T11:21:44;23.90;99.90
26479;DHT22;14163;-26.142;27.992;2022-12-05T11:24:21;24.00;99.90
26479;DHT22;14163;-26.142;27.992;2022-12-05T11:26:50;24.10;99.90
26479;DHT22;14163;-26.142;27.992;2022-12-05T11:29:32;24.20;99.90
26479;DHT22;14163;-26.142;27.992;2022-12-05T11:32:04;24.50;99.90
26479;DHT22;14163;-26.142;27.992;2022-12-05T11:34:38;24.80;99.90
26479;DHT22;14163;-26.142;27.992;2022-12-05T11:37:13;24.90;99.90
26479;DHT22;14163;-26.142;27.992;2022-12-05T11:39:45;24.80;99.90
26479;DHT22;14163;-26.142;27.992;2022-12-05T11:42:23;24.70;99.90
26479;DHT22;14163;-26.142;27.992;2022-12-05T11:45:23;24.50;99.90
26479;DHT22;14163;-26.142;27.992;2022-12-05T11:48:09;24.30;99.90
26479;DHT22;14163;-26.142;27.992;2022-12-05T11:50:58;23.30;99.90
26479;DHT22;14163;-26.142;27.992;2022-12-05T11:53:48;22.40;99.90
26479;DHT22;14163;-26.142;27.992;2022-12-05T11:56:32;21.90;99.90
26479;DHT22;14163;-26.142;27.992;2022-12-05T11:59:21;21.80;99.90
26479;DHT22;14163;-26.142;27.992;2022-12-05T12:02:01;21.80;99.90
26479;DHT22;14163;-26.142;27.992;2022-12-05T12:04:49;21.80;99.90
26479;DHT22;14163;-26.142;27.992;2022-12-05T12:07:34;21.50;99.90
26479;DHT22;14163;-26.142;27.992;2022-12-05T12:10:17;21.40;99.90
26479;DHT22;14163;-26.142;27.992;2022-12-05T12:12:57;21.60;99.90
26479;DHT22;14163;-26.142;27.992;2022-12-05T12:18:42;21.90;99.90
26479;DHT22;14163;-26.142;27.992;2022-12-05T12:21:17;22.10;99.90
26479;DHT22;14163;-26.142;27.992;2022-12-05T12:23:57;22.20;99.90
26479;DHT22;14163;-26.142;27.992;2022-12-05T12:26:38;22.20;99.90
26479;DHT22;14163;-26.142;27.992;2022-12-05T12:29:18;22.20;99.90
26479;DHT22;14163;-26.142;27.992;2022-12-05T12:32:03;22.20;99.90
26479;DHT22;14163;-26.142;27.992;2022-12-05T12:37:39;22.10;99.90
26479;DHT22;14163;-26.142;27.992;2022-12-05T12:40:16;22.10;99.90
26479;DHT22;14163;-26.142;27.992;2022-12-05T12:42:55;22.10;99.90
26479;DHT22;14163;-26.142;27.992;2022-12-05T12:45:55;20.90;99.90
26479;DHT22;14163;-26.142;27.992;2022-12-05T12:48:49;17.60;99.90
26479;DHT22;14163;-26.142;27.992;2022-12-05T12:51:24;16.00;99.90
26479;DHT22;14163;-26.142;27.992;2022-12-05T12:54:09;15.50;99.90
26479;DHT22;14163;-26.142;27.992;2022-12-05T12:56:49;15.40;99.90
26479;DHT22;14163;-26.142;27.992;2022-12-05T12:59:40;15.60;99.90
26479;DHT22;14163;-26.142;27.992;2022-12-05T13:02:19;16.00;99.90
26479;DHT22;14163;-26.142;27.992;2022-12-05T13:04:53;16.30;99.90
26479;DHT22;14163;-26.142;27.992;2022-12-05T13:07:30;16.50;99.90
26479;DHT22;14163;-26.142;27.992;2022-12-05T13:10:05;16.60;99.90
26479;DHT22;14163;-26.142;27.992;2022-12-05T13:12:41;16.70;99.90
26479;DHT22;14163;-26.142;27.992;2022-12-05T13:15:14;16.60;99.90
26479;DHT22;14163;-26.142;27.992;2022-12-05T13:17:46;16.70;99.90
26479;DHT22;14163;-26.142;27.992;2022-12-05T13:20:17;16.80;99.90
26479;DHT22;14163;-26.142;27.992;2022-12-05T13:22:50;16.90;99.90
26479;DHT22;14163;-26.142;27.992;2022-12-05T13:25:22;17.00;99.90
26479;DHT22;14163;-26.142;27.992;2022-12-05T13:27:54;17.10;99.90
26479;DHT22;14163;-26.142;27.992;2022-12-05T13:30:25;17.30;99.90
26479;DHT22;14163;-26.142;27.992;2022-12-05T13:32:58;17.40;99.90
26479;DHT22;14163;-26.142;27.992;2022-12-05T13:35:30;17.50;99.90
26479;DHT22;14163;-26.142;27.992;2022-12-05T13:38:26;17.50;99.90
26479;DHT22;14163;-26.142;27.992;2022-12-05T13:41:13;17.40;99.90
26479;DHT22;14163;-26.142;27.992;2022-12-05T13:43:59;17.20;99.90
26479;DHT22;14163;-26.142;27.992;2022-12-05T13:46:30;17.20;99.90
26479;DHT22;14163;-26.142;27.992;2022-12-05T13:49:04;17.40;99.90
26479;DHT22;14163;-26.142;27.992;2022-12-05T13:51:37;17.50;99.90
26479;DHT22;14163;-26.142;27.992;2022-12-05T13:54:14;17.60;99.90
26479;DHT22;14163;-26.142;27.992;2022-12-05T13:56:49;17.60;99.90
26479;DHT22;14163;-26.142;27.992;2022-12-05T14:02:48;17.70;99.90
26479;DHT22;14163;-26.142;27.992;2022-12-05T16:11:07;16.60;99.90
26479;DHT22;14163;-26.142;27.992;2022-12-05T16:13:40;17.00;99.90
26479;DHT22;14163;-26.142;27.992;2022-12-05T16:16:15;17.60;99.90
26479;DHT22;14163;-26.142;27.992;2022-12-05T16:18:54;18.20;99.90
26479;DHT22;14163;-26.142;27.992;2022-12-05T16:21:31;18.70;99.90
26479;DHT22;14163;-26.142;27.992;2022-12-05T16:24:06;19.00;99.90
26479;DHT22;14163;-26.142;27.992;2022-12-05T16:26:40;19.40;99.90
26479;DHT22;14163;-26.142;27.992;2022-12-05T16:29:24;19.40;99.90
26479;DHT22;14163;-26.142;27.992;2022-12-05T16:31:55;19.80;99.90
26479;DHT22;14163;-26.142;27.992;2022-12-05T16:34:26;20.10;99.90
26479;DHT22;14163;-26.142;27.992;2022-12-05T16:36:56;20.30;99.90
26479;DHT22;14163;-26.142;27.992;2022-12-05T16:39:26;20.40;99.90
26479;DHT22;14163;-26.142;27.992;2022-12-05T16:41:57;20.40;99.90
26479;DHT22;14163;-26.142;27.992;2022-12-05T16:44:53;20.40;99.90
26479;DHT22;14163;-26.142;27.992;2022-12-05T16:47:57;20.20;99.90
26479;DHT22;14163;-26.142;27.992;2022-12-05T16:50:30;19.70;99.90
26479;DHT22;14163;-26.142;27.992;2022-12-05T16:53:02;19.50;99.90
26479;DHT22;14163;-26.142;27.992;2022-12-05T16:55:32;19.30;99.90
26479;DHT22;14163;-26.142;27.992;2022-12-05T16:58:05;19.40;99.90
26479;DHT22;14163;-26.142;27.992;2022-12-05T17:00:37;19.70;99.90
26479;DHT22;14163;-26.142;27.992;2022-12-05T17:03:10;19.90;99.90
26479;DHT22;14163;-26.142;27.992;2022-12-05T17:05:40;19.80;99.90
26479;DHT22;14163;-26.142;27.992;2022-12-05T17:08:09;19.50;99.90
26479;DHT22;14163;-26.142;27.992;2022-12-05T17:10:38;19.50;99.90
26479;DHT22;14163;-26.142;27.992;2022-12-05T17:29:14;20.10;99.90
26479;DHT22;14163;-26.142;27.992;2022-12-05T17:31:43;17.00;99.90
26479;DHT22;14163;-26.142;27.992;2022-12-05T17:34:16;17.50;99.90
26479;DHT22;14163;-26.142;27.992;2022-12-05T17:36:45;18.20;99.90
26479;DHT22;14163;-26.142;27.992;2022-12-05T17:39:14;18.80;99.90
26479;DHT22;14163;-26.142;27.992;2022-12-05T17:41:44;19.20;99.90
26479;DHT22;14163;-26.142;27.992;2022-12-05T17:44:15;19.70;99.90
26479;DHT22;14163;-26.142;27.992;2022-12-05T17:46:44;20.00;99.90
26479;DHT22;14163;-26.142;27.992;2022-12-05T17:49:13;20.20;99.90
26479;DHT22;14163;-26.142;27.992;2022-12-05T17:51:43;20.40;99.90
26479;DHT22;14163;-26.142;27.992;2022-12-05T17:54:13;20.50;99.90
26479;DHT22;14163;-26.142;27.992;2022-12-05T17:56:42;20.60;99.90
26479;DHT22;14163;-26.142;27.992;2022-12-05T17:59:13;20.70;99.90
26479;DHT22;14163;-26.142;27.992;2022-12-05T18:01:42;20.80;99.90
26479;DHT22;14163;-26.142;27.992;2022-12-05T18:04:11;20.80;99.90
26479;DHT22;14163;-26.142;27.992;2022-12-05T18:06:40;20.90;99.90
26479;DHT22;14163;-26.142;27.992;2022-12-05T18:09:09;20.70;99.90
26479;DHT22;14163;-26.142;27.992;2022-12-05T18:11:38;20.80;99.90
26479;DHT22;14163;-26.142;27.992;2022-12-05T18:14:07;20.80;99.90
26479;DHT22;14163;-26.142;27.992;2022-12-05T18:16:38;20.80;99.90
26479;DHT22;14163;-26.142;27.992;2022-12-05T18:19:08;20.70;99.90
26479;DHT22;14163;-26.142;27.992;2022-12-05T18:21:37;20.70;99.90
26479;DHT22;14163;-26.142;27.992;2022-12-05T18:24:06;20.60;99.90